Search for airport 
image banner adimage banner adimage banner ad
image banner ad

9PA3 - Mcmillin Landingstrip

Located in Wampum, United States

ICAO - 9PA3, IATA -

Data provided by Airmate  

General information

Coordinates: N40°53'15" W80°19'13"
Elevation is 918 feet MSL.
 
View others Airports in Pennsylvania

Operational data

Special qualification required
Current time UTC:
Current local time:
Weather at : KBVI - Beaver County ( 14 km )
METAR: KBVI 071355Z AUTO 34003KT 7SM -RA BKN005 BKN011 OVC021 06/05 A2991 RMK AO2 T00590052
TAF: KBVI 071133Z 0712/0812 32004KT 6SM -SHRA OVC020 FM071300 32005KT 3SM -SHRA OVC010 TEMPO 0714/0716 OVC008 FM071700 31008G16KT P6SM -SHRA BKN015 FM071900 32009KT P6SM BKN025 FM072100 31008KT P6SM SCT040 FM080100 27003KT P6SM VCSH SCT100 FM080600 26004KT P6SM VCSH BKN015
View NOTAMs / SUP AIP / TFR affecting this airport [VIEW]
Communications frequencies: [VIEW]

Runways:

RWY identifierQFULength (ft)Width (ft)SurfaceLDA (ft)
181295100GRASS
361295100GRASS

Airport contact information

Address: Wampum United States

Satellite view of 9PA3